Prairie, Mississippi
Current Conditions -  °F | °C
As of 4:55 AM on Sunday 23 Nov 2014 (Local Time) from KM40 Reporting Station
Overcast Overcast  
Wind Chill: 61°   Ceiling: 1000
Heat Index: 61°   Visibility: 10mi
Dew Point: 45°   Wind: 9mph
Humidity: 55%   Direction: 140°SE
Pressure: 29.86"   Gusts: NA
Location:  33.8°N, 88.67°W
Report Text: KM40 231055Z AUTO 14008KT 10SM OVC010 16/07 A2986 RMK AO2
Loading
Personal Weather Stations






























Interactive Weather Map New forecast layout! Learn more

10-Day Weather Forecast

Advertisements
Track Severe Weather on mobile